• Join FlightAware (Why Join?)
  • Login
  • US Flag 
02:57PM EDT


 

Airport Tracker/Info


-or-


 

Live Flight TrackerFlight Track Log ✈ ACA831 ✈ 08-May-2013 ✈ LSGG / GVA - CYUL

Flight Track Log - Related Links

Times and Time Zones

All times are in EDT time to prevent confusion due to time zone crossing. See the ACA831 flight status page for this flight to view local times or setup timezone preferences in your user account.

Time Position Orientation Groundspeed Altitude Reporting Facility
EDT Latitude Longitude Course Direction KTS MPH feet Rate Location/Type
06:21AM 46.2800 6.1710 270° West 183 211 4,300  Level FlightAware
06:23AM 46.3940 6.3280 43° Northeast 291 335 9,300 2,340 Climbing FlightAware
06:26AM 46.5188 6.0168 300° West  Level Estimated
06:27AM 46.5771 5.8704 300° West  Level Estimated
06:27AM 46.7630 6.1120 300° West 398 458 19,200  Level FlightAware
06:28AM 46.7860 6.0810 317° Northwest 397 457 19,900 1,920 Climbing FlightAware
06:28AM 46.8080 6.0250 300° West 402 463 20,500 1,140 Climbing FlightAware
06:29AM 46.8420 5.8000 283° West 404 465 22,000 1,380 Climbing FlightAware
06:30AM 46.8600 5.6780 282° West 404 465 23,500 1,920 Climbing FlightAware
06:31AM 46.8790 5.5450 282° West 411 473 25,100 2,460 Climbing FlightAware
06:32AM 46.8960 5.4240 282° West 395 455 27,400 2,280 Climbing FlightAware
06:32AM 46.9110 5.3180 282° West 401 461 28,400 1,440 Climbing FlightAware
06:33AM 46.9300 5.2450 291° West 406 467 29,100 1,800 Climbing FlightAware
06:34AM 46.9840 5.1640 314° West 409 471 30,500 1,680 Climbing FlightAware
06:34AM 47.0460 5.0810 318° Northwest 414 476 31,500 1,440 Climbing FlightAware
06:35AM 47.1030 5.0070 319° Northwest 415 478 32,600 1,740 Climbing FlightAware
06:36AM 47.1620 4.9210 315° West 401 461 34,000 1,020 Climbing FlightAware
06:36AM 47.2090 4.8500 314° West 397 457 34,000  Level FlightAware
06:37AM 47.2640 4.7670 314° West 395 455 34,000  Level FlightAware
06:38AM 47.3060 4.7050 315° West 398 458 34,000  Level FlightAware
06:38AM 47.3690 4.6110 315° West 397 457 34,000  Level FlightAware
06:39AM 47.4340 4.5140 315° West 398 458 34,000  Level FlightAware
06:40AM 47.4860 4.4360 315° West 399 459 34,000  Level FlightAware
06:41AM 47.5350 4.3610 314° West 400 460 34,000  Level FlightAware
06:41AM 47.5930 4.2730 314° West 403 464 34,000  Level FlightAware
06:42AM 47.6490 4.1890 315° West 404 465 34,000  Level FlightAware
06:42AM 47.6723 4.1531 314° West 405 466 34,000  Level FlightAware ADS-B
06:43AM 47.7118 4.0923 314° West 405 466 34,000  Level FlightAware ADS-B
06:43AM 47.7580 4.0210 314° West 404 465 34,000  Level FlightAware
06:44AM 47.7736 3.9970 314° West 405 466 34,000  Level FlightAware ADS-B
06:44AM 47.8175 3.9291 314° West 405 466 34,000  Level FlightAware ADS-B
06:45AM 47.8701 3.8477 314° West 404 465 34,000  Level FlightAware ADS-B
06:45AM 47.9109 3.7844 314° West 402 463 34,000  Level FlightAware ADS-B
06:46AM 47.9530 3.7185 314° West 402 463 34,000  Level FlightAware ADS-B
06:46AM 47.9949 3.6532 314° West 402 463 34,000  Level FlightAware ADS-B
06:47AM 48.0402 3.5822 314° West 400 460 34,000  Level FlightAware ADS-B
06:48AM 48.0825 3.5157 314° West 400 460 34,000  Level FlightAware ADS-B
06:48AM 48.1385 3.4274 314° West 399 459 34,000  Level FlightAware ADS-B
06:49AM 48.1870 3.3510 314° West 398 458 34,000  Level FlightAware
06:49AM 48.1979 3.3335 313° West 399 459 34,000  Level FlightAware ADS-B
06:50AM 48.2370 3.2716 313° West 399 459 34,000  Level FlightAware ADS-B
06:50AM 48.2752 3.2109 313° West 400 460 34,000  Level FlightAware ADS-B
06:51AM 48.3132 3.1505 313° West 400 460 34,000  Level FlightAware ADS-B
06:51AM 48.3588 3.0774 313° West 400 460 34,000  Level FlightAware ADS-B
06:52AM 48.3972 3.0156 313° West 399 459 34,000  Level FlightAware ADS-B
06:52AM 48.4083 2.9945 308° West 397 457 34,000  Level FlightAware ADS-B
06:52AM 48.4285 2.9318 296° West 389 448 34,000  Level FlightAware ADS-B
06:53AM 48.4389 2.8785 286° West 389 448 34,000  Level FlightAware ADS-B
06:53AM 48.4537 2.7983 286° West 388 447 34,000  Level FlightAware ADS-B
06:54AM 48.4680 2.7130 284° West 389 448 34,000  Level FlightAware
06:54AM 48.4790 2.6509 285° West 389 448 34,000  Level FlightAware ADS-B
06:55AM 48.4927 2.5724 285° West 390 449 34,000  Level FlightAware ADS-B
06:55AM 48.5067 2.4929 285° West 391 450 34,000  Level FlightAware ADS-B
06:56AM 48.5241 2.3933 285° West 391 450 34,000  Level FlightAware ADS-B
06:56AM 48.5380 2.3134 285° West 392 451 34,000  Level FlightAware ADS-B
06:57AM 48.5522 2.2314 285° West 392 451 34,000  Level FlightAware ADS-B
06:57AM 48.5668 2.1468 285° West 391 450 34,000  Level FlightAware ADS-B
06:58AM 48.5806 2.0659 284° West 391 450 34,000  Level FlightAware ADS-B
06:58AM 48.5942 1.9857 284° West 391 450 34,000 -1,680 Level FlightAware ADS-B
06:59AM 48.6050 1.9225 284° West 464 534 32,500  Descending FlightAware UK
06:59AM 48.6092 1.9030 284° West 393 452 34,000  Climbing FlightAware ADS-B
06:59AM 48.6174 1.8599 284° West 464 534 32,500  Descending FlightAware UK
06:59AM 48.6245 1.8236 284° West 393 452 34,000  Climbing FlightAware ADS-B
07:00AM 48.6323 1.7807 284° West 462 532 32,500  Descending FlightAware UK
07:00AM 48.6399 1.7422 284° West 393 452 34,000 1,920 Climbing FlightAware ADS-B
07:00AM 48.6557 1.6575 286° West 393 452 34,000  Level FlightAware ADS-B
07:01AM 48.6705 1.5775 286° West 394 453 34,000  Level FlightAware ADS-B
07:01AM 48.6851 1.4974 285° West 395 455 34,000 -1,920 Level FlightAware ADS-B
07:02AM 48.6941 1.4487 285° West 464 534 32,500  Descending FlightAware UK
07:02AM 48.7102 1.3600 285° West 395 455 34,000  Climbing FlightAware ADS-B
07:03AM 48.7202 1.3050 285° West 468 539 32,500  Descending FlightAware UK
07:03AM 48.7273 1.2663 285° West 394 453 34,000  Climbing FlightAware ADS-B
07:03AM 48.7376 1.2086 285° West 470 541 32,500  Descending FlightAware UK
07:03AM 48.7422 1.1836 285° West 394 453 34,000  Climbing FlightAware ADS-B
07:04AM 48.7517 1.1295 285° West 470 541 32,500  Descending FlightAware UK
07:04AM 48.7567 1.1031 285° West 391 450 34,000  Climbing FlightAware ADS-B
07:04AM 48.7661 1.0503 285° West 472 543 32,500  Descending FlightAware UK
07:04AM 48.7711 1.0233 285° West 390 449 34,000  Climbing FlightAware ADS-B
07:05AM 48.7801 0.9721 285° West 468 539 32,500  Descending FlightAware UK
07:05AM 48.7858 0.9408 285° West 389 448 34,000  Climbing FlightAware ADS-B
07:05AM 48.7939 0.8932 285° West 466 536 32,500  Descending FlightAware UK
07:06AM 48.8003 0.8591 285° West 388 447 34,000  Climbing FlightAware ADS-B
07:06AM 48.8078 0.8147 285° West 466 536 32,500  Descending FlightAware UK
07:06AM 48.8182 0.7582 285° West 386 444 34,000 1,560 Climbing FlightAware ADS-B
07:07AM 48.8342 0.6674 285° West 384 442 34,000 -1,800 Level FlightAware ADS-B
07:07AM 48.8409 0.6278 285° West 468 539 32,500  Descending FlightAware UK
07:07AM 48.8507 0.5732 285° West 383 441 34,000  Climbing FlightAware ADS-B
07:08AM 48.8598 0.5183 285° West 466 536 32,500  Descending FlightAware UK
07:08AM 48.8660 0.4820 285° West 381 438 34,000 3,600 Climbing FlightAware
07:08AM 48.8710 0.4561 286° West 383 441 34,000 -3,600 Level FlightAware ADS-B
07:08AM 48.8784 0.4098 286° West 464 534 32,500  Descending FlightAware UK
07:09AM 48.8840 0.3820 286° West 381 438 34,000  Climbing FlightAware
07:09AM 48.8919 0.3332 286° West 462 532 32,500  Descending FlightAware UK
07:09AM 48.8964 0.3093 286° West 381 438 34,000 2,040 Climbing FlightAware ADS-B
07:10AM 48.9111 0.2234 285° West 380 437 34,000 -1,620 Level FlightAware ADS-B
07:10AM 48.9209 0.1639 285° West 462 532 32,500  Descending FlightAware UK
07:10AM 48.9247 0.1438 285° West 379 436 34,000  Climbing FlightAware ADS-B
07:10AM 48.9336 0.0879 285° West 462 532 32,500  Descending FlightAware UK
07:11AM 48.9380 0.0654 285° West 379 436 34,000  Climbing FlightAware ADS-B
07:11AM 48.9466 0.0104 285° West 462 532 32,500 -2,040 Descending FlightAware UK
07:11AM 48.9568 -0.0505 284° West 464 534 32,500 3,060 Level FlightAware UK
07:11AM 48.9601 -0.0652 284° West 379 436 34,000  Climbing FlightAware ADS-B
07:12AM 48.9746 -0.1585 284° West 464 534 32,500  Descending FlightAware UK
07:12AM 48.9770 -0.1650 284° West 378 435 34,000 3,300 Climbing FlightAware
07:13AM 48.9873 -0.2273 284° West 379 436 34,000 -2,400 Level FlightAware ADS-B
07:13AM 48.9924 -0.2659 284° West 464 534 32,500 -2,760 Descending FlightAware UK
07:13AM 49.0000 -0.3122 284° West 464 534 32,500  Level FlightAware UK
07:13AM 49.0077 -0.3585 284° West 464 534 32,500 3,060 Level FlightAware UK
07:14AM 49.0120 -0.3790 284° West 377 434 34,000  Climbing FlightAware
07:14AM 49.0205 -0.4351 284° West 464 534 32,500  Descending FlightAware UK
07:14AM 49.0310 -0.4950 284° West 377 434 34,000  Climbing FlightAware
07:15AM 49.0383 -0.5432 284° West 464 534 32,500 -2,700 Descending FlightAware UK
07:15AM 49.0459 -0.5894 284° West 464 534 32,500 4,680 Level FlightAware UK
07:15AM 49.0460 -0.5820 284° West 377 434 34,000  Climbing FlightAware
07:15AM 49.0609 -0.6815 284° West 464 534 32,500  Descending FlightAware UK
07:16AM 49.0650 -0.7030 284° West 377 434 34,000  Climbing FlightAware
07:16AM 49.0735 -0.7593 284° West 464 534 32,500  Descending FlightAware UK
07:16AM 49.0840 -0.8170 284° West 377 434 34,000  Climbing FlightAware
07:17AM 49.0913 -0.8672 284° West 464 534 32,500  Descending FlightAware UK
07:17AM 49.1000 -0.9140 284° West 377 434 34,000  Climbing FlightAware
07:17AM 49.1085 -0.9758 284° West 464 534 32,500  Descending FlightAware UK
07:18AM 49.1140 -1.0070 284° West 377 434 34,000 1,320 Climbing FlightAware
07:18AM 49.1350 -1.1400 284° West 380 437 34,000 -1,260 Level FlightAware
07:19AM 49.1455 -1.2096 284° West 464 534 32,500  Descending FlightAware UK
07:19AM 49.1530 -1.2490 284° West 381 438 34,000 1,740 Climbing FlightAware
07:20AM 49.1660 -1.3350 283° West 381 438 34,000 -1,680 Level FlightAware
07:20AM 49.1748 -1.3967 283° West 462 532 32,500  Descending FlightAware UK
07:21AM 49.1860 -1.4630 283° West 381 438 34,000  Climbing FlightAware
07:21AM 49.2016 -1.5694 283° West 464 534 32,500  Descending FlightAware UK
07:21AM 49.2020 -1.5700 283° West 383 441 34,000  Climbing FlightAware
07:22AM 49.2137 -1.6476 283° West 464 534 32,500  Descending FlightAware UK
07:22AM 49.2200 -1.6880 283° West 384 442 34,000  Climbing FlightAware
07:22AM 49.2332 -1.7743 283° West 466 536 32,500  Descending FlightAware UK
07:23AM 49.2360 -1.7910 283° West 384 442 34,000  Climbing FlightAware
07:23AM 49.2454 -1.8536 283° West 468 539 32,500  Descending FlightAware UK
07:23AM 49.2530 -1.9060 283° West 384 442 34,000  Climbing FlightAware
07:24AM 49.2621 -1.9648 283° West 470 541 32,500  Descending FlightAware UK
07:24AM 49.2700 -2.0150 283° West 384 442 34,000  Climbing FlightAware
07:24AM 49.2782 -2.0767 283° West 468 539 32,500 -2,520 Descending FlightAware UK
07:25AM 49.2852 -2.1238 283° West 468 539 32,500 4,080 Level FlightAware UK
07:25AM 49.2850 -2.1200 283° West 384 442 34,000  Climbing FlightAware
07:25AM 49.2946 -2.1872 283° West 466 536 32,500 -2,400 Descending FlightAware UK
07:25AM 49.3017 -2.2343 283° West 466 536 32,500 3,600 Level FlightAware UK
07:25AM 49.3030 -2.2390 283° West 383 441 34,000  Climbing FlightAware
07:26AM 49.3138 -2.3131 283° West 466 536 32,500  Descending FlightAware UK
07:26AM 49.3190 -2.3470 283° West 384 442 34,000  Climbing FlightAware
07:26AM 49.3278 -2.4090 283° West 466 536 32,500 -2,460 Descending FlightAware UK
07:27AM 49.3346 -2.4568 282° West 466 536 32,500 3,420 Level FlightAware UK
07:27AM 49.3360 -2.4680 282° West 384 442 34,000  Climbing FlightAware
07:27AM 49.3436 -2.5205 282° West 464 534 32,500 -2,700 Descending FlightAware UK
07:27AM 49.3505 -2.5682 282° West 464 534 32,500 3,720 Level FlightAware UK
07:28AM 49.3510 -2.5670 282° West 384 442 34,000 1,920 Climbing FlightAware
07:28AM 49.3660 -2.6710 283° West 385 443 34,000 -1,440 Level FlightAware
07:29AM 49.3779 -2.7590 283° West 464 534 32,500  Descending FlightAware UK
07:29AM 49.3840 -2.7980 283° West 385 443 34,000  Climbing FlightAware
07:29AM 49.3916 -2.8548 283° West 464 534 32,500  Descending FlightAware UK
07:30AM 49.3990 -2.9020 283° West 385 443 34,000  Climbing FlightAware
07:30AM 49.4073 -2.9664 283° West 460 529 32,500 -2,520 Descending FlightAware UK
07:30AM 49.4140 -3.0146 282° West 456 525 32,500 3,300 Level FlightAware UK
07:30AM 49.4160 -3.0230 282° West 387 445 34,000  Climbing FlightAware
07:31AM 49.4232 -3.0790 282° West 456 525 32,500 -2,760 Descending FlightAware UK
07:31AM 49.4301 -3.1273 282° West 456 525 32,500 3,600 Level FlightAware UK
07:31AM 49.4310 -3.1350 282° West 389 448 34,000  Climbing FlightAware
07:31AM 49.4388 -3.1917 282° West 456 525 32,500 -2,220 Descending FlightAware UK
07:32AM 49.4477 -3.2568 282° West 456 525 32,500 3,180 Level FlightAware UK
07:32AM 49.4460 -3.2440 282° West 392 451 34,000  Climbing FlightAware
07:32AM 49.4566 -3.3216 282° West 456 525 32,500  Descending FlightAware UK
07:32AM 49.4630 -3.3710 282° West 395 455 34,000  Climbing FlightAware
07:33AM 49.4723 -3.4368 282° West 460 529 32,500  Descending FlightAware UK
07:33AM 49.4780 -3.4800 282° West 397 457 34,000  Climbing FlightAware
07:34AM 49.4880 -3.5528 282° West 460 529 32,500 -2,160 Descending FlightAware UK
07:34AM 49.4948 -3.6027 282° West 462 532 32,500 4,260 Level FlightAware UK
07:34AM 49.4960 -3.6070 282° West 400 460 34,000  Climbing FlightAware
07:34AM 49.5016 -3.6527 282° West 462 532 32,500  Descending FlightAware UK
07:35AM 49.5110 -3.7190 282° West 403 464 34,000  Climbing FlightAware
07:35AM 49.5170 -3.7697 282° West 464 534 32,500 -2,580 Descending FlightAware UK
07:35AM 49.5237 -3.8203 282° West 464 534 32,500 3,180 Level FlightAware UK
07:35AM 49.5260 -3.8360 282° West 405 466 34,000  Climbing FlightAware
07:36AM 49.5349 -3.9052 282° West 462 532 32,500  Descending FlightAware UK
07:36AM 49.5420 -3.9560 282° West 408 470 34,000  Climbing FlightAware
07:36AM 49.5483 -4.0069 282° West 464 534 32,500 -2,340 Descending FlightAware UK
07:37AM 49.5572 -4.0754 281° West 464 534 32,500 3,000 Level FlightAware UK
07:37AM 49.5580 -4.0830 281° West 409 471 34,000  Climbing FlightAware
07:37AM 49.5703 -4.1782 281° West 466 536 32,500  Descending FlightAware UK
07:37AM 49.5740 -4.2020 281° West 412 474 34,000  Climbing FlightAware
07:38AM 49.5814 -4.2645 281° West 468 539 32,500 -2,400 Descending FlightAware UK
07:38AM 49.5896 -4.3164 284° West 470 541 32,500 4,500 Level FlightAware UK
07:38AM 49.5910 -4.3170 284° West 420 483 34,000  Climbing FlightAware
07:38AM 49.6116 -4.3812 284° West 470 541 32,500 -2,280 Descending FlightAware UK
07:39AM 49.6308 -4.4279 302° West 470 541 32,500 3,900 Level FlightAware UK
07:39AM 49.6340 -4.4340 302° West 431 496 34,000  Climbing FlightAware
07:39AM 49.6569 -4.4897 302° West 470 541 32,500  Descending FlightAware UK
07:39AM 49.6780 -4.5360 302° West 433 498 34,000  Climbing FlightAware
07:40AM 49.7038 -4.5972 302° West 472 543 32,500  Descending FlightAware UK
07:40AM 49.7150 -4.6230 304° West 433 498 34,000  Climbing FlightAware
07:40AM 49.7237 -4.6436 304° West 472 543 32,500 -5,640 Descending FlightAware UK
07:40AM 49.7369 -4.6746 304° West 470 541 32,500  Level FlightAware UK
07:41AM 49.7566 -4.7211 303° West 470 541 32,500 2,640 Level FlightAware UK
07:41AM 49.7720 -4.7580 303° West 432 497 34,000  Climbing FlightAware
07:41AM 49.7956 -4.8138 303° West 468 539 32,500  Descending FlightAware UK
07:42AM 49.8150 -4.8600 303° West 431 496 34,000  Climbing FlightAware
07:42AM 49.8346 -4.9071 303° West 466 536 32,500 -2,700 Descending FlightAware UK
07:42AM 49.8540 -4.9537 303° West 464 534 32,500 3,060 Level FlightAware UK
07:42AM 49.8630 -4.9740 303° West 431 496 34,000  Climbing FlightAware
07:43AM 49.8864 -5.0314 303° West 466 536 32,500 -2,460 Descending FlightAware UK
07:43AM 49.9059 -5.0779 303° West 466 536 32,500 4,260 Level FlightAware UK
07:43AM 49.9080 -5.0790 303° West 436 502 34,000  Climbing FlightAware
07:43AM 49.9316 -5.1192 303° West 464 534 32,500 -2,760 Descending FlightAware UK
07:44AM 49.9559 -5.1611 312° West 462 532 32,500 3,600 Level FlightAware UK
07:44AM 49.9630 -5.1720 312° West 439 505 34,000  Climbing FlightAware
07:44AM 49.9882 -5.2174 312° West 464 534 32,500  Descending FlightAware UK
07:44AM 50.0210 -5.2760 312° West 437 503 34,000  Climbing FlightAware
07:45AM 50.0511 -5.3316 312° West 462 532 32,500 -2,400 Descending FlightAware UK
07:45AM 50.0743 -5.3749 310° West 462 532 32,500 4,500 Level FlightAware UK
07:45AM 50.0740 -5.3750 310° West 436 502 34,000  Climbing FlightAware
07:46AM 50.1203 -5.4617 310° West 462 532 32,500  Descending FlightAware UK
07:46AM 50.1310 -5.4820 310° West 434 499 34,000  Climbing FlightAware
07:46AM 50.1662 -5.5487 310° West 462 532 32,500  Descending FlightAware UK
07:46AM 50.1820 -5.5770 310° West 435 501 34,000  Climbing FlightAware
07:47AM 50.2046 -5.6209 310° West 458 527 32,500 -2,760 Descending FlightAware UK
07:47AM 50.2280 -5.6639 310° West 458 527 32,500 3,000 Level FlightAware UK
07:47AM 50.2420 -5.6870 310° West 436 502 34,000  Climbing FlightAware
07:48AM 50.2676 -5.7351 310° West 458 527 32,500 -2,520 Descending FlightAware UK
07:48AM 50.2914 -5.7779 311° West 458 527 32,500 4,080 Level FlightAware UK
07:48AM 50.2940 -5.7820 311° West 437 503 34,000  Climbing FlightAware
07:48AM 50.3232 -5.8352 311° West 458 527 32,500 -2,400 Descending FlightAware UK
07:49AM 50.3470 -5.8785 311° West 458 527 32,500 4,500 Level FlightAware UK
07:49AM 50.3480 -5.8800 311° West 438 504 34,000  Climbing FlightAware
07:49AM 50.3703 -5.9215 311° West 456 525 32,500 -2,280 Descending FlightAware UK
07:49AM 50.4017 -5.9796 310° West 458 527 32,500 3,060 Level FlightAware UK
07:49AM 50.4060 -5.9860 310° West 440 506 34,000  Climbing FlightAware
07:50AM 50.4333 -6.0377 310° West 458 527 32,500  Descending FlightAware UK
07:50AM 50.4590 -6.0840 310° West 442 509 34,000  Climbing FlightAware
07:50AM 50.4807 -6.1255 310° West 458 527 32,500 -2,760 Descending FlightAware UK
07:51AM 50.5044 -6.1695 310° West 462 532 32,500 3,000 Level FlightAware UK
07:51AM 50.5170 -6.1920 310° West 443 510 34,000  Climbing FlightAware
07:51AM 50.5443 -6.2430 310° West 462 532 32,500 -2,520 Descending FlightAware UK
07:51AM 50.5681 -6.2874 310° West 464 534 32,500 4,080 Level FlightAware UK
07:51AM 50.5710 -6.2920 310° West 444 511 34,000  Climbing FlightAware
07:52AM 50.6000 -6.3467 310° West 464 534 32,500 -2,400 Descending FlightAware UK
07:52AM 50.6238 -6.3911 310° West 466 536 32,500 4,500 Level FlightAware UK
07:52AM 50.6240 -6.3910 310° West 445 512 34,000  Climbing FlightAware
07:52AM 50.6476 -6.4355 310° West 466 536 32,500 -2,700 Descending FlightAware UK
07:53AM 50.6713 -6.4801 310° West 466 536 32,500 3,720 Level FlightAware UK
07:53AM 50.6770 -6.4910 310° West 446 513 34,000  Climbing FlightAware
07:53AM 50.7030 -6.5399 310° West 466 536 32,500 -2,520 Descending FlightAware UK
07:53AM 50.7268 -6.5846 310° West 468 539 32,500 3,300 Level FlightAware UK
07:53AM 50.7360 -6.6010 310° West 446 513 34,000  Climbing FlightAware
07:54AM 50.7585 -6.6446 310° West 466 536 32,500 -2,760 Descending FlightAware UK
07:54AM 50.7820 -6.6898 309° West 464 534 32,500 3,600 Level FlightAware UK
07:54AM 50.7870 -6.7040 309° West 442 509 34,000  Climbing FlightAware
07:54AM 50.8085 -6.7551 309° West 462 532 32,500 -2,580 Descending FlightAware UK
07:55AM 50.8292 -6.8030 304° West 462 532 32,500 3,180 Level FlightAware UK
07:55AM 50.8400 -6.8240 304° West 444 511 34,000  Climbing FlightAware
07:55AM 50.8645 -6.8825 304° West 462 532 32,500 -2,400 Descending FlightAware UK
07:56AM 50.8859 -6.9301 305° West 460 529 32,500 3,600 Level FlightAware UK
07:56AM 50.8940 -6.9440 305° West 445 512 34,000  Climbing FlightAware
07:56AM 50.9146 -6.9936 305° West 462 532 32,500 -2,580 Descending FlightAware UK
07:56AM 50.9363 -7.0412 306° West 464 534 32,500 3,900 Level FlightAware UK
07:56AM 50.9410 -7.0470 306° West 446 513 34,000  Climbing FlightAware
07:57AM 50.9652 -7.1041 306° West 464 534 32,500 -2,460 Descending FlightAware UK
07:57AM 50.9870 -7.1519 306° West 462 532 32,500 4,260 Level FlightAware UK
07:57AM 50.9890 -7.1520 306° West 448 516 34,000  Climbing FlightAware
07:57AM 51.0088 -7.1998 306° West 460 529 32,500 -2,760 Descending FlightAware UK
07:58AM 51.0305 -7.2480 306° West 464 534 32,500 3,000 Level FlightAware UK
07:58AM 51.0440 -7.2760 306° West 448 516 34,000  Climbing FlightAware
07:58AM 51.0665 -7.3284 306° West 466 536 32,500 -2,520 Descending FlightAware UK
07:58AM 51.0883 -7.3768 306° West 466 536 32,500 4,080 Level FlightAware UK
07:58AM 51.0930 -7.3850 306° West 449 517 34,000  Climbing FlightAware
07:59AM 51.1172 -7.4415 306° West 466 536 32,500 -2,400 Descending FlightAware UK
07:59AM 51.1389 -7.4900 306° West 466 536 32,500 3,600 Level FlightAware UK
07:59AM 51.1450 -7.5020 306° West 450 518 34,000  Climbing FlightAware
07:59AM 51.1678 -7.5548 306° West 464 534 32,500 -2,580 Descending FlightAware UK
08:00AM 51.1895 -7.6036 305° West 464 534 32,500 4,980 Level FlightAware UK
08:00AM 51.1890 -7.6010 305° West 451 519 34,000  Climbing FlightAware
08:00AM 51.2113 -7.6524 305° West 464 534 32,500 -2,520 Descending FlightAware UK
08:00AM 51.2328 -7.7014 305° West 464 534 32,500 3,300 Level FlightAware UK
08:00AM 51.2420 -7.7210 305° West 452 520 34,000  Climbing FlightAware
08:01AM 51.2614 -7.7671 305° West 466 536 32,500 -2,760 Descending FlightAware UK
08:01AM 51.2827 -7.8165 305° West 464 534 32,500 3,000 Level FlightAware UK
08:01AM 51.2930 -7.8400 305° West 453 521 34,000  Climbing FlightAware
08:02AM 51.3182 -7.8990 305° West 464 534 32,500 -2,520 Descending FlightAware UK
08:02AM 51.3395 -7.9486 305° West 464 534 32,500 4,080 Level FlightAware UK
08:02AM 51.3430 -7.9540 305° West 455 524 34,000  Climbing FlightAware
08:02AM 51.3684 -8.0145 305° West 462 532 32,500 -2,400 Descending FlightAware UK
08:03AM 51.3899 -8.0642 305° West 464 534 32,500 4,500 Level FlightAware UK
08:03AM 51.3900 -8.0650 305° West 456 525 34,000  Climbing FlightAware
08:03AM 51.4113 -8.1141 305° West 464 534 32,500 -2,700 Descending FlightAware UK
08:03AM 51.4327 -8.1640 304° West 468 539 32,500 3,720 Level FlightAware UK
08:03AM 51.4380 -8.1750 304° West 457 526 34,000  Climbing FlightAware
08:04AM 51.4613 -8.2307 304° West 468 539 32,500 -2,520 Descending FlightAware UK
08:04AM 51.4825 -8.2802 305° West 468 539 32,500 3,300 Level FlightAware UK
08:04AM 51.4890 -8.2950 305° West 458 527 34,000  Climbing FlightAware
08:04AM 51.5111 -8.3471 305° West 468 539 32,500 -2,760 Descending FlightAware UK
08:05AM 51.5325 -8.3973 304° West 468 539 32,500  Level FlightAware UK
08:05AM 51.5539 -8.4475 304° West 472 543 32,500  Level FlightAware UK
08:05AM 51.5751 -8.4981 304° West 472 543 32,500 4,680 Level FlightAware UK
08:05AM 51.5740 -8.4960 304° West 457 526 34,000  Climbing FlightAware
08:05AM 51.5964 -8.5484 304° West 472 543 32,500 -2,580 Descending FlightAware UK
08:06AM 51.6176 -8.5989 304° West 472 543 32,500 3,180 Level FlightAware UK
08:06AM 51.6270 -8.6200 304° West 455 524 34,000  Climbing FlightAware
08:06AM 51.6530 -8.6829 304° West 472 543 32,500 -2,400 Descending FlightAware UK
08:07AM 51.6742 -8.7334 304° West 472 543 32,500 4,500 Level FlightAware UK
08:07AM 51.6740 -8.7330 304° West 455 524 34,000  Climbing FlightAware
08:07AM 51.6953 -8.7838 304° West 468 539 32,500 -2,700 Descending FlightAware UK
08:07AM 51.7163 -8.8342 304° West 468 539 32,500 4,680 Level FlightAware UK
08:07AM 51.7150 -8.8310 304° West 454 522 34,000  Climbing FlightAware
08:07AM 51.7374 -8.8846 304° West 470 541 32,500 -2,580 Descending FlightAware UK
08:08AM 51.7583 -8.9349 304° West 468 539 32,500 2,700 Level FlightAware UK
08:08AM 51.7720 -8.9690 304° West 451 519 34,000  Climbing FlightAware
08:08AM 51.7931 -9.0186 304° West 468 539 32,500  Descending FlightAware UK
08:09AM 51.8200 -9.0820 304° West 450 518 34,000 1,260 Climbing FlightAware
08:09AM 51.8710 -9.2080 303° West 449 517 34,000  Level FlightAware
08:10AM 51.9160 -9.3180 304° West 448 516 34,000  Level FlightAware
08:11AM 51.9620 -9.4290 304° West 447 514 34,000  Level FlightAware
08:11AM 52.0080 -9.5420 304° West 449 517 34,000  Level FlightAware
08:12AM 52.0580 -9.6670 303° West 446 513 34,000  Level FlightAware
08:13AM 52.1040 -9.7790 304° West 449 517 34,000  Level FlightAware
08:14AM 52.1550 -9.9080 303° West 455 524 34,000  Level FlightAware
08:14AM 52.2010 -10.0220 303° West 456 525 34,000  Level FlightAware
08:15AM 52.2510 -10.1470 303° West 460 529 34,000  Level FlightAware
08:16AM 52.2950 -10.2600 303° West 466 536 34,000  Level FlightAware
08:16AM 52.3380 -10.3920 298° West 465 535 34,000 60 Level FlightAware
08:17AM 52.3650 -10.5420 286° West 467 537 34,100  Climbing FlightAware
08:20AM 52.4454 -10.9934 286° West  Level Estimated
08:20AM 52.4650 -11.1630 286° West 473 544 34,000  Level FlightAware
08:23AM 52.5431 -11.6165 286° West  Level Estimated
08:24AM 52.5742 -11.8007 286° West  Level Estimated
08:25AM 52.6051 -11.9853 285° West  Level Estimated
08:25AM 52.6240 -12.1610 285° West 460 529 34,000  Level FlightAware
08:26AM 52.6410 -12.3040 281° West 455 524 35,000 840 Climbing FlightAware
08:26AM 52.6550 -12.4320 280° West 455 524 35,200 480 Climbing FlightAware
08:27AM 52.6790 -12.5820 285° West 36,000 600 Climbing FlightAware
08:28AM 52.6940 -12.6950 282° West 459 528 36,000  Level FlightAware
08:28AM 52.7120 -12.8400 282° West 459 528 36,000  Level FlightAware
08:29AM 52.7270 -12.9570 282° West 459 528 36,000  Level FlightAware
08:30AM 52.7420 -13.0740 282° West 459 528 36,000  Level FlightAware
08:30AM 52.7570 -13.1900 282° West 459 528 36,000  Level FlightAware
08:31AM 52.7720 -13.3070 282° West 459 528 36,000  Level FlightAware
08:32AM 52.7910 -13.4530 282° West 459 528 36,000  Level FlightAware
08:33AM 52.8060 -13.5700 282° West 459 528 36,000  Level FlightAware
08:33AM 52.8210 -13.6870 282° West 459 528 36,000  Level FlightAware
08:34AM 52.8400 -13.8330 282° West 459 528 36,000  Level FlightAware
08:35AM 52.8550 -13.9500 282° West 459 528 36,000  Level FlightAware
08:35AM 52.8700 -14.0670 282° West 459 528 36,000  Level FlightAware
08:36AM 52.8850 -14.1840 282° West 459 528 36,000  Level FlightAware
08:37AM 52.9000 -14.3010 282° West 459 528 36,000  Level FlightAware
08:39AM 52.9464 -14.6231 284° West  Level Estimated
08:40AM 52.9730 -14.8110 283° West  Level Estimated
08:41AM 52.9993 -14.9992 283° West  Level Estimated
08:42AM 53.0253 -15.1875 283° West  Level Estimated
08:43AM 53.0509 -15.3758 283° West  Level Estimated
08:44AM 53.0763 -15.5642 283° West  Level Estimated
08:45AM 53.1014 -15.7528 283° West  Level Estimated
08:46AM 53.1261 -15.9417 282° West  Level Estimated
08:47AM 53.1506 -16.1308 282° West  Level Estimated
08:48AM 53.1747 -16.3201 282° West  Level Estimated
08:49AM 53.1986 -16.5096 282° West  Level Estimated
08:50AM 53.2220 -16.6980 282° West  Level Estimated
08:51AM 53.2451 -16.8865 282° West  Level Estimated
08:52AM 53.2679 -17.0753 281° West  Level Estimated
08:53AM 53.2904 -17.2642 281° West  Level Estimated
08:54AM 53.3126 -17.4534 281° West  Level Estimated
08:55AM 53.3345 -17.6427 281° West  Level Estimated
08:56AM 53.3561 -17.8323 281° West  Level Estimated
08:57AM 53.3774 -18.0223 281° West  Level Estimated
08:58AM 53.3985 -18.2127 281° West  Level Estimated
08:59AM 53.4192 -18.4034 280° West  Level Estimated
09:00AM 53.4397 -18.5943 280° West  Level Estimated
09:01AM 53.4598 -18.7853 280° West  Level Estimated
09:02AM 53.4797 -18.9765 280° West  Level Estimated
09:03AM 53.4992 -19.1679 280° West  Level Estimated
09:04AM 53.5184 -19.3595 280° West  Level Estimated
09:05AM 53.5374 -19.5512 280° West  Level Estimated
09:05AM 54.0000 -20.0000 274° West 440 506 36,000  Level ETMS Enhanced Traffic Management System
09:06AM 53.5560 -19.7431 279° West  Level Estimated
09:07AM 53.5743 -19.9352 279° West  Level Estimated
09:08AM 53.5923 -20.1275 279° West  Level Estimated
09:09AM 53.6100 -20.3199 279° West  Level Estimated
09:10AM 53.6274 -20.5124 279° West  Level Estimated
09:11AM 53.6444 -20.7052 279° West  Level Estimated
09:12AM 54.0632 -21.8718 273° West 440 506 36,000  Level FlightAware Transoceanic
09:13AM 54.0685 -22.0801 272° West 440 506 36,000  Level FlightAware Transoceanic
09:14AM 54.0733 -22.2885 272° West 440 506 36,000  Level FlightAware Transoceanic
09:15AM 54.0778 -22.4969 272° West 440 506 36,000  Level FlightAware Transoceanic
09:16AM 54.0820 -22.7053 272° West 440 506 36,000  Level FlightAware Transoceanic
09:17AM 54.0858 -22.9138 272° West 440 506 36,000  Level FlightAware Transoceanic
09:18AM 54.0892 -23.1223 272° West 440 506 36,000  Level FlightAware Transoceanic
09:19AM 54.0923 -23.3309 271° West 440 506 36,000  Level FlightAware Transoceanic
09:20AM 54.0950 -23.5394 271° West 440 506 36,000  Level FlightAware Transoceanic
09:21AM 54.0973 -23.7481 271° West 440 506 36,000  Level FlightAware Transoceanic
09:22AM 54.0993 -23.9567 271° West 440 506 36,000  Level FlightAware Transoceanic
09:23AM 54.1009 -24.1653 271° West 440 506 36,000  Level FlightAware Transoceanic
09:24AM 54.1022 -24.3740 271° West 440 506 36,000  Level FlightAware Transoceanic
09:25AM 54.1031 -24.5826 270° West 440 506 36,000  Level FlightAware Transoceanic
09:26AM 54.1036 -24.7913 270° West 440 506 36,000  Level FlightAware Transoceanic
09:27AM 54.1038 -25.0000 270° West 440 506 36,000  Level FlightAware Transoceanic
09:28AM 54.1036 -25.2087 270° West 440 506 36,000  Level FlightAware Transoceanic
09:29AM 54.1031 -25.4174 270° West 440 506 36,000  Level FlightAware Transoceanic
09:30AM 54.1022 -25.6260 269° West 440 506 36,000  Level FlightAware Transoceanic
09:31AM 54.1009 -25.8347 269° West 440 506 36,000  Level FlightAware Transoceanic
09:32AM 54.0993 -26.0433 269° West 440 506 36,000  Level FlightAware Transoceanic
09:33AM 54.0973 -26.2519 269° West 440 506 36,000  Level FlightAware Transoceanic
09:34AM 54.0950 -26.4606 269° West 440 506 36,000  Level FlightAware Transoceanic
09:35AM 54.0923 -26.6691 269° West 440 506 36,000  Level FlightAware Transoceanic
09:36AM 54.0892 -26.8777 268° West 440 506 36,000  Level FlightAware Transoceanic
09:37AM 54.0858 -27.0862 268° West 440 506 36,000  Level FlightAware Transoceanic
09:38AM 54.0820 -27.2947 268° West 440 506 36,000  Level FlightAware Transoceanic
09:39AM 54.0778 -27.5031 268° West 440 506 36,000  Level FlightAware Transoceanic
09:40AM 54.0733 -27.7115 268° West 440 506 36,000  Level FlightAware Transoceanic
09:41AM 54.0685 -27.9199 268° West 440 506 36,000  Level FlightAware Transoceanic
09:42AM 54.0632 -28.1282 267° West 440 506 36,000  Level FlightAware Transoceanic
09:43AM 54.0576 -28.3364 267° West 440 506 36,000  Level FlightAware Transoceanic
09:44AM 54.0517 -28.5446 267° West 440 506 36,000  Level FlightAware Transoceanic
09:45AM 54.0454 -28.7527 267° West 440 506 36,000  Level FlightAware Transoceanic
09:46AM 54.0387 -28.9608 267° West 440 506 36,000  Level FlightAware Transoceanic
09:47AM 54.0317 -29.1688 267° West 440 506 36,000  Level FlightAware Transoceanic
09:48AM 54.0243 -29.3767 266° West 440 506 36,000  Level FlightAware Transoceanic
09:49AM 54.0166 -29.5846 266° West 440 506 36,000  Level FlightAware Transoceanic
09:50AM 54.0085 -29.7923 266° West 440 506 36,000  Level FlightAware Transoceanic
09:51AM 54.0005 -29.9884 266° West  Level FlightAware Approximate
09:52AM 53.9922 -30.1845 266° West  Level FlightAware Approximate
09:53AM 53.9901 -30.1725 265° West  Level FlightAware Approximate
09:54AM 53.9786 -30.3680 264° West  Level FlightAware Approximate
09:55AM 53.9668 -30.5634 264° West  Level FlightAware Approximate
09:55AM 54.0000 -30.0000 265° West 409 471 36,000  Level ETMS Enhanced Traffic Management System
09:56AM 53.9547 -30.7587 264° West  Level FlightAware Approximate
09:57AM 53.9422 -30.9539 264° West  Level FlightAware Approximate
09:58AM 53.9294 -31.1490 264° West  Level FlightAware Approximate
09:59AM 53.9163 -31.3439 264° West  Level FlightAware Approximate
10:00AM 53.9029 -31.5387 263° West  Level FlightAware Approximate
10:01AM 53.8896 -31.7286 263° West 409 471 36,000  Level FlightAware Transoceanic
10:02AM 53.8758 -31.9201 263° West 409 471 36,000  Level FlightAware Transoceanic
10:03AM 53.8616 -32.1114 263° West 409 471 36,000  Level FlightAware Transoceanic
10:04AM 53.8472 -32.3027 263° West 409 471 36,000  Level FlightAware Transoceanic
10:05AM 53.8325 -32.4938 262° West 409 471 36,000  Level FlightAware Transoceanic
10:06AM 53.8175 -32.6847 262° West 409 471 36,000  Level FlightAware Transoceanic
10:07AM 53.8022 -32.8755 262° West 409 471 36,000  Level FlightAware Transoceanic
10:08AM 53.7866 -33.0662 262° West 409 471 36,000  Level FlightAware Transoceanic
10:09AM 53.7706 -33.2567 262° West 409 471 36,000  Level FlightAware Transoceanic
10:10AM 53.7544 -33.4471 262° West 409 471 36,000  Level FlightAware Transoceanic
10:11AM 53.7379 -33.6373 262° West 409 471 36,000  Level FlightAware Transoceanic
10:12AM 53.7211 -33.8274 261° West 409 471 36,000  Level FlightAware Transoceanic
10:13AM 53.7039 -34.0173 261° West 409 471 36,000  Level FlightAware Transoceanic
10:14AM 53.6865 -34.2071 261° West 409 471 36,000  Level FlightAware Transoceanic
10:15AM 53.6688 -34.3967 261° West 409 471 36,000  Level FlightAware Transoceanic
10:16AM 53.6507 -34.5862 261° West 409 471 36,000  Level FlightAware Transoceanic
10:17AM 53.6324 -34.7755 261° West 409 471 36,000  Level FlightAware Transoceanic
10:18AM 53.6138 -34.9646 260° West 409 471 36,000  Level FlightAware Transoceanic
10:19AM 53.5949 -35.1536 260° West 409 471 36,000  Level FlightAware Transoceanic
10:20AM 53.5757 -35.3424 260° West 409 471 36,000  Level FlightAware Transoceanic
10:21AM 53.5561 -35.5310 260° West 409 471 36,000  Level FlightAware Transoceanic
10:22AM 53.5363 -35.7194 260° West 409 471 36,000  Level FlightAware Transoceanic
10:23AM 53.5162 -35.9077 260° West 409 471 36,000  Level FlightAware Transoceanic
10:24AM 53.4958 -36.0958 260° West 409 471 36,000  Level FlightAware Transoceanic
10:25AM 53.4751 -36.2837 259° West 409 471 36,000  Level FlightAware Transoceanic
10:26AM 53.4541 -36.4714 259° West 409 471 36,000  Level FlightAware Transoceanic
10:27AM 53.4328 -36.6589 259° West 409 471 36,000  Level FlightAware Transoceanic
10:28AM 53.4113 -36.8462 259° West 409 471 36,000  Level FlightAware Transoceanic
10:29AM 53.3894 -37.0334 259° West 409 471 36,000  Level FlightAware Transoceanic
10:30AM 53.3672 -37.2203 259° West 409 471 36,000  Level FlightAware Transoceanic
10:31AM 53.3447 -37.4071 259° West 409 471 36,000  Level FlightAware Transoceanic
10:32AM 53.3220 -37.5937 258° West 409 471 36,000  Level FlightAware Transoceanic
10:33AM 53.2990 -37.7800 258° West 409 471 36,000  Level FlightAware Transoceanic
10:34AM 53.2756 -37.9662 258° West 409 471 36,000  Level FlightAware Transoceanic
10:35AM 53.2520 -38.1521 258° West 409 471 36,000  Level FlightAware Transoceanic
10:36AM 53.2281 -38.3379 258° West 409 471 36,000  Level FlightAware Transoceanic
10:37AM 53.2039 -38.5234 258° West 409 471 36,000  Level FlightAware Transoceanic
10:38AM 53.1794 -38.7088 257° West 409 471 36,000  Level FlightAware Transoceanic
10:39AM 53.1546 -38.8939 257° West 409 471 36,000  Level FlightAware Transoceanic
10:40AM 53.1296 -39.0788 257° West 409 471 36,000  Level FlightAware Transoceanic
10:41AM 53.1042 -39.2635 257° West 409 471 36,000  Level FlightAware Transoceanic
10:42AM 53.0786 -39.4479 257° West 409 471 36,000  Level FlightAware Transoceanic
10:43AM 53.0527 -39.6322 257° West 409 471 36,000  Level FlightAware Transoceanic
10:44AM 53.0265 -39.8162 257° West 409 471 36,000  Level FlightAware Transoceanic
10:45AM 52.9996 -40.0030 257° West  Level FlightAware Approximate
10:46AM 52.9991 -40.0059 256° West  Level FlightAware Approximate
10:47AM 52.9710 -40.1921 256° West  Level FlightAware Approximate
10:48AM 52.9426 -40.3779 256° West  Level FlightAware Approximate
10:49AM 52.9139 -40.5636 256° West  Level FlightAware Approximate
10:50AM 52.8849 -40.7490 256° West  Level FlightAware Approximate
10:51AM 52.8556 -40.9342 255° West  Level FlightAware Approximate
10:52AM 52.8260 -41.1191 255° West  Level FlightAware Approximate
10:53AM 52.7962 -41.3037 255° West  Level FlightAware Approximate
10:54AM 52.7660 -41.4881 255° West  Level FlightAware Approximate
10:55AM 52.7356 -41.6723 255° West  Level FlightAware Approximate
10:56AM 52.7049 -41.8562 255° West  Level FlightAware Approximate
10:57AM 52.6739 -42.0398 255° West  Level FlightAware Approximate
10:58AM 52.6426 -42.2231 254° West  Level FlightAware Approximate
10:59AM 52.6111 -42.4062 254° West  Level FlightAware Approximate
11:00AM 52.5792 -42.5891 254° West  Level FlightAware Approximate
11:01AM 52.5471 -42.7717 254° West  Level FlightAware Approximate
11:02AM 52.5147 -42.9540 254° West  Level FlightAware Approximate
11:03AM 52.4820 -43.1360 254° West  Level FlightAware Approximate
11:04AM 52.4491 -43.3177 253° West  Level FlightAware Approximate
11:05AM 52.4158 -43.4992 253° West  Level FlightAware Approximate
11:06AM 52.3823 -43.6805 253° West  Level FlightAware Approximate
11:07AM 52.3485 -43.8614 253° West  Level FlightAware Approximate
11:08AM 52.3144 -44.0420 253° West  Level FlightAware Approximate
11:09AM 52.2801 -44.2224 253° West  Level FlightAware Approximate
11:10AM 52.2455 -44.4025 253° West  Level FlightAware Approximate
11:11AM 52.2106 -44.5824 252° West  Level FlightAware Approximate
11:12AM 52.1754 -44.7619 252° West  Level FlightAware Approximate
11:13AM 52.1400 -44.9411 252° West  Level FlightAware Approximate
11:14AM 52.1043 -45.1201 252° West  Level FlightAware Approximate
11:15AM 52.0683 -45.2988 252° West  Level FlightAware Approximate
11:16AM 52.0320 -45.4771 252° West  Level FlightAware Approximate
11:17AM 51.9955 -45.6553 252° West  Level FlightAware Approximate
11:18AM 51.9587 -45.8330 252° West  Level FlightAware Approximate
11:19AM 51.9217 -46.0106 251° West  Level FlightAware Approximate
11:20AM 51.8843 -46.1878 251° West  Level FlightAware Approximate
11:21AM 51.8468 -46.3647 251° West  Level FlightAware Approximate
11:22AM 51.8089 -46.5413 251° West  Level FlightAware Approximate
11:23AM 51.7708 -46.7177 251° West  Level FlightAware Approximate
11:24AM 51.7324 -46.8937 251° West  Level FlightAware Approximate
11:25AM 51.6938 -47.0694 251° West  Level FlightAware Approximate
11:26AM 51.6549 -47.2449 250° West  Level FlightAware Approximate
11:27AM 51.6157 -47.4200 250° West  Level FlightAware Approximate
11:28AM 51.5763 -47.5948 250° West  Level FlightAware Approximate
11:29AM 51.5366 -47.7693 250° West  Level FlightAware Approximate
11:30AM 51.4967 -47.9436 250° West  Level FlightAware Approximate
11:31AM 51.4565 -48.1175 250° West  Level FlightAware Approximate
11:32AM 51.4160 -48.2911 250° West  Level FlightAware Approximate
11:33AM 51.3753 -48.4644 249° West  Level FlightAware Approximate
11:34AM 51.3343 -48.6373 249° West  Level FlightAware Approximate
11:35AM 51.2931 -48.8100 249° West  Level FlightAware Approximate
11:36AM 51.2516 -48.9824 249° West  Level FlightAware Approximate
11:37AM 51.2099 -49.1544 249° West  Level FlightAware Approximate
11:38AM 51.1679 -49.3262 249° West  Level FlightAware Approximate
11:39AM 51.1257 -49.4976 249° West  Level FlightAware Approximate
11:40AM 51.0832 -49.6687 248° West  Level FlightAware Approximate
11:41AM 51.0405 -49.8395 248° West  Level FlightAware Approximate
11:42AM 50.9932 -50.0000 180° South  Level FlightAware Approximate
11:43AM 50.9584 -50.1630 256° West  Level FlightAware Approximate
11:44AM 50.9308 -50.3411 256° West  Level FlightAware Approximate
11:45AM 50.9030 -50.5190 256° West  Level FlightAware Approximate
11:46AM 50.8748 -50.6966 256° West  Level FlightAware Approximate
11:46AM 51.0000 -50.0000 250° West 419 482 36,000  Level ETMS Enhanced Traffic Management System
11:46AM 50.9500 -50.3167 249° West 440 506 36,000  Level Gander Center
11:47AM 50.8465 -50.8740 256° West  Level FlightAware Approximate
11:47AM 50.8833 -50.5000 240° Southwest 440 506 36,000  Level Gander Center
11:48AM 50.7985 -51.0405 246° West  Level FlightAware Approximate
11:48AM 50.8667 -50.6333 259° West 460 529 36,100  Level Moncton Center
11:49AM 50.7502 -51.2066 245° Southwest  Level FlightAware Approximate
11:49AM 50.8333 -50.8000 252° West 440 506 36,000  Level Moncton Center
11:50AM 50.7017 -51.3724 245° Southwest  Level FlightAware Approximate
11:50AM 50.8167 -51.0000 263° West 440 506 36,000  Level Moncton Center
11:51AM 50.6530 -51.5378 245° Southwest  Level FlightAware Approximate
11:51AM 50.7833 -51.1500 251° West 440 506 36,000  Level Gander Center
11:52AM 50.6707 -51.3827 249° West 419 482 36,000  Level FlightAware Transoceanic
11:52AM 50.7500 -51.3333 254° West 430 495 36,000  Level Gander Center
11:52AM 50.7333 -51.4333 255° West 430 495 36,000  Level Gander Center
11:53AM 50.7333 -51.5167 270° West 430 495 36,000  Level Gander Center
11:59AM 50.5520 -52.6350 270° West 443 510 36,000  Level FlightAware
11:59AM 50.5260 -52.7800 254° West 446 513 36,000  Level FlightAware
12:00PM 50.5100 -52.8720 255° West 447 514 36,000  Level FlightAware
12:01PM 50.4790 -53.0410 254° West 451 519 36,000  Level FlightAware
12:02PM 50.4560 -53.1700 254° West 451 519 36,000  Level FlightAware
12:02PM 50.4340 -53.2910 254° West 452 520 36,000  Level FlightAware
12:03PM 50.4080 -53.4310 254° West 453 521 36,000  Level FlightAware
12:04PM 50.3830 -53.5640 254° West 452 520 36,000  Level FlightAware
12:04PM 50.3570 -53.7010 253° West 451 519 36,000  Level FlightAware
12:05PM 50.3330 -53.8290 254° West 450 518 36,000  Level FlightAware
12:06PM 50.3090 -53.9540 253° West 448 516 36,000  Level FlightAware
12:06PM 50.2830 -54.0920 254° West 446 513 36,000  Level FlightAware
12:07PM 50.2590 -54.2150 253° West 445 512 36,000  Level FlightAware
12:08PM 50.2330 -54.3540 254° West 441 507 36,000  Level FlightAware
12:09PM 50.2090 -54.4760 253° West 441 507 36,000  Level FlightAware
12:09PM 50.1850 -54.5960 253° West 439 505 36,000  Level FlightAware
12:10PM 50.1600 -54.7240 253° West 437 503 36,000  Level FlightAware
12:11PM 50.1340 -54.8530 253° West 436 502 36,000  Level FlightAware
12:11PM 50.1070 -54.9870 253° West 436 502 36,000  Level FlightAware
12:12PM 50.0830 -55.1060 253° West 435 501 36,000  Level FlightAware
12:13PM 50.0590 -55.2240 252° West 436 502 36,000  Level FlightAware
12:13PM 50.0320 -55.3600 253° West 435 501 36,000  Level FlightAware
12:14PM 50.0080 -55.4750 252° West 434 499 36,000  Level FlightAware
12:15PM 49.9800 -55.6110 252° West 434 499 36,000  Level FlightAware
12:16PM 49.9550 -55.7300 252° West 434 499 36,000  Level FlightAware
12:16PM 49.9300 -55.8470 252° West 433 498 36,000  Level FlightAware
12:17PM 49.9040 -55.9720 252° West 433 498 36,000  Level FlightAware
12:18PM 49.8780 -56.0960 252° West 432 497 36,000  Level FlightAware
12:18PM 49.8490 -56.2310 252° West 433 498 36,000  Level FlightAware
12:19PM 49.8240 -56.3460 251° West 434 499 36,000  Level FlightAware
12:20PM 49.8020 -56.4520 252° West 434 499 36,000  Level FlightAware
12:20PM 49.7740 -56.5800 251° West 434 499 36,000  Level FlightAware
12:21PM 49.7390 -56.7390 251° West 434 499 36,000  Level FlightAware
12:22PM 49.7060 -56.8860 251° West 434 499 36,000  Level FlightAware
12:23PM 49.6840 -56.9850 251° West 434 499 36,000  Level FlightAware
12:23PM 49.6620 -57.0850 251° West 434 499 36,000  Level FlightAware
12:24PM 49.6400 -57.1850 251° West 434 499 36,000  Level FlightAware
12:25PM 49.6040 -57.3440 251° West 36,000  Level FlightAware
12:26PM 49.5740 -57.4760 251° West 432 497 36,000  Level FlightAware
12:26PM 49.5460 -57.6010 251° West 432 497 36,000  Level FlightAware
12:27PM 49.5240 -57.6950 250° West 431 496 36,000  Level FlightAware
12:28PM 49.4920 -57.8370 251° West 432 497 36,000  Level FlightAware
12:28PM 49.4670 -57.9430 250° West 433 498 36,000  Level FlightAware
12:29PM 49.4340 -58.0840 250° West 433 498 36,000  Level FlightAware
12:30PM 49.4050 -58.2080 250° West 434 499 36,000 600 Level FlightAware
12:30PM 49.3740 -58.3390 250° West 438 504 36,900 1,200 Climbing FlightAware
12:31PM 49.3430 -58.4700 250° West 439 505 37,800 780 Climbing FlightAware
12:32PM 49.3110 -58.6020 250° West 441 507 38,200 780 Climbing FlightAware
12:33PM 49.2790 -58.7360 250° West 443 510 39,000 480 Climbing FlightAware
12:34PM 49.2440 -58.8800 250° West 442 509 39,000  Level FlightAware
12:34PM 49.2160 -58.9950 250° West 439 505 39,000  Level FlightAware
12:35PM 49.1770 -59.1530 249° West 438 504 39,000  Level FlightAware
12:36PM 49.1450 -59.2870 250° West 437 503 39,000  Level FlightAware
12:37PM 49.1140 -59.4090 249° West 437 503 39,000  Level FlightAware
12:37PM 49.0667 -59.5167 249° West 430 495 39,000  Level Gander Center
12:38PM 49.0500 -59.6500 259° West 430 495 39,000  Level Moncton Center
12:39PM 49.0000 -59.8000 243° Southwest 430 495 39,000  Level Moncton Center
12:40PM 48.9500 -59.9667 246° West 440 506 39,000  Level Moncton Center
12:41PM 48.9167 -60.1333 253° West 440 506 39,000  Level Moncton Center
12:41PM 48.9000 -60.2167 253° West 440 506 39,000  Level Gander Center
12:42PM 48.8667 -60.3167 243° Southwest 440 506 39,000  Level Moncton Center
12:42PM 48.8500 -60.4000 253° West 440 506 39,000  Level Gander Center
12:43PM 48.8000 -60.5500 243° Southwest 440 506 39,000  Level Gander Center
12:44PM 48.7833 -60.6667 258° West 440 506 39,000  Level Moncton Center
12:45PM 48.7333 -60.8500 248° West 440 506 39,000  Level Moncton Center
12:46PM 48.6833 -61.0167 246° West 440 506 39,000  Level Moncton Center
12:47PM 48.6333 -61.2000 248° West 440 506 39,000  Level Moncton Center
12:48PM 48.5833 -61.3667 246° West 440 506 39,000  Level Moncton Center
12:48PM 48.5833 -61.4167 270° West 440 506 39,000  Level Gander Center
12:49PM 48.5500 -61.5167 243° Southwest 430 495 39,000  Level Moncton Center
12:50PM 48.4833 -61.7000 241° Southwest 440 506 39,000  Level Moncton Center
12:51PM 48.4667 -61.8667 261° West 430 495 39,000  Level Moncton Center
12:51PM 48.4333 -61.9333 233° Southwest 430 495 39,000  Level Gander Center
12:52PM 48.3833 -62.0833 243° Southwest 440 506 39,000  Level Gander Center
12:53PM 48.3667 -62.2000 258° West 440 506 39,000  Level Moncton Center
12:54PM 48.3167 -62.3500 243° Southwest 430 495 39,000  Level Moncton Center
12:54PM 48.3000 -62.4333 253° West 430 495 39,000  Level Gander Center
12:55PM 48.2667 -62.5333 243° Southwest 430 495 39,000  Level Moncton Center
12:56PM 48.2167 -62.6833 243° Southwest 430 495 39,000  Level Moncton Center
12:57PM 48.1833 -62.8667 255° West 430 495 39,000  Level Moncton Center
12:58PM 48.1333 -63.0500 248° West 430 495 39,000  Level Moncton Center
12:58PM 48.1000 -63.0833 214° Southwest 420 483 39,000  Level Gander Center
12:59PM 48.0833 -63.2167 259° West 430 495 39,000  Level Moncton Center
01:00PM 48.0333 -63.3667 244° Southwest 430 495 39,000  Level Moncton Center
01:01PM 47.9833 -63.5500 248° West 430 495 39,000  Level Moncton Center
01:02PM 47.9333 -63.7000 244° Southwest 430 495 39,000  Level Moncton Center
01:03PM 47.8833 -63.8500 244° Southwest 430 495 39,000  Level Moncton Center
01:04PM 47.8333 -64.0167 246° West 430 495 39,000  Level Moncton Center
01:05PM 47.7833 -64.1667 244° Southwest 430 495 39,000  Level Moncton Center
01:06PM 47.7333 -64.3500 248° West 430 495 39,000  Level Moncton Center
01:07PM 47.6833 -64.5000 244° Southwest 430 495 39,000  Level Moncton Center
01:08PM 47.6333 -64.6667 246° West 430 495 39,000  Level Moncton Center
01:09PM 47.5833 -64.8167 244° Southwest 430 495 39,000  Level Moncton Center
01:10PM 47.5333 -65.0000 248° West 430 495 39,000  Level Moncton Center
01:11PM 47.4833 -65.1333 241° Southwest 430 495 39,000  Level Moncton Center
01:12PM 47.4333 -65.2833 244° Southwest 430 495 39,000  Level Moncton Center
01:13PM 47.3833 -65.4667 248° West 420 483 39,000  Level Moncton Center
01:14PM 47.3500 -65.6000 250° West 420 483 39,000  Level Moncton Center
01:15PM 47.2833 -65.7833 242° Southwest 420 483 39,000  Level Moncton Center
01:16PM 47.2333 -65.9333 244° Southwest 420 483 39,000  Level Moncton Center
01:17PM 47.1833 -66.1000 246° West 430 495 39,000  Level Moncton Center
01:18PM 47.1333 -66.2500 244° Southwest 420 483 39,000  Level Moncton Center
01:19PM 47.0833 -66.4167 246° West 420 483 39,000  Level Moncton Center
01:20PM 47.0333 -66.5500 241° Southwest 420 483 39,000  Level Moncton Center
01:21PM 46.9667 -66.7000 237° Southwest 420 483 39,000  Level Moncton Center
01:22PM 46.9167 -66.8667 246° West 420 483 39,000  Level Moncton Center
01:23PM 46.9031 -66.9592 258° West 427 491 39,000  Level Boston Center
01:28PM 46.6870 -67.8490 258° West 430 495 39,000  Level FlightAware
01:29PM 46.6650 -67.9400 251° West 430 495 39,000  Level FlightAware
01:30PM 46.6300 -68.0880 251° West 432 497 39,000  Level FlightAware
01:30PM 46.6030 -68.1990 251° West 432 497 39,000  Level FlightAware
01:31PM 46.5820 -68.2840 250° West 432 497 39,000  Level FlightAware
01:32PM 46.5500 -68.4150 250° West 432 497 39,000  Level FlightAware
01:32PM 46.5180 -68.5480 251° West 434 499 39,000  Level FlightAware
01:33PM 46.4910 -68.6580 250° West 434 499 39,000  Level FlightAware
01:34PM 46.4640 -68.7670 250° West 434 499 39,000  Level FlightAware
01:34PM 46.4340 -68.8870 250° West 434 499 39,000  Level FlightAware
01:35PM 46.4070 -68.9980 251° West 434 499 39,000  Level FlightAware
01:36PM 46.3760 -69.1200 250° West 434 499 39,000  Level FlightAware
01:37PM 46.3490 -69.2280 250° West 432 497 39,000  Level FlightAware
01:37PM 46.3220 -69.3350 250° West 432 497 39,000  Level FlightAware
01:38PM 46.2900 -69.4570 249° West 433 498 39,000  Level FlightAware
01:39PM 46.2630 -69.5650 250° West 431 496 39,000  Level FlightAware
01:39PM 46.2310 -69.6870 249° West 432 497 39,000  Level FlightAware
01:40PM 46.2040 -69.7930 250° West 431 496 39,000  Level FlightAware
01:41PM 46.1790 -69.9030 252° West 431 496 39,000  Level FlightAware
01:41PM 46.1580 -70.0280 256° West 432 497 39,000  Level FlightAware
01:42PM 46.1400 -70.1390 257° West 432 497 39,000  Level FlightAware
01:43PM 46.1210 -70.2660 258° West 432 497 39,000  Level FlightAware
01:44PM 46.1030 -70.3770 257° West 432 497 39,000  Level FlightAware
01:44PM 46.0850 -70.4880 257° West 432 497 39,000  Level FlightAware
01:45PM 46.0640 -70.6140 257° West 432 497 39,000  Level FlightAware
01:46PM 46.0450 -70.7260 256° West 433 498 39,000 -120 Level FlightAware
01:46PM 46.0240 -70.8500 256° West 434 499 38,900 -960 Descending FlightAware
01:47PM 46.0060 -70.9620 257° West 430 495 37,700 -1,920 Descending FlightAware
01:48PM 45.9870 -71.0720 256° West 421 484 36,400 -1,980 Descending FlightAware
01:48PM 45.9660 -71.1920 256° West 413 475 34,900 -1,980 Descending FlightAware
01:49PM 45.9480 -71.2970 256° West 403 464 33,600 -1,920 Descending FlightAware
01:50PM 45.9290 -71.4110 257° West 392 451 32,200 -1,920 Descending FlightAware
01:51PM 45.9110 -71.5110 256° West 383 441 30,900 -1,620 Descending FlightAware
01:51PM 45.8940 -71.6080 256° West 375 432 30,100 -1,500 Descending FlightAware
01:52PM 45.8760 -71.7130 256° West 366 421 28,800 -1,860 Descending FlightAware
01:53PM 45.8590 -71.8080 256° West 361 415 27,500 -1,980 Descending FlightAware
01:53PM 45.8410 -71.9110 256° West 356 410 26,000 -1,980 Descending FlightAware
01:54PM 45.8240 -72.0010 255° West 353 406 24,700 -1,980 Descending FlightAware
01:55PM 45.8120 -72.0930 259° West 352 405 23,400 -1,920 Descending FlightAware
01:55PM 45.8020 -72.1960 262° West 348 400 22,000 -1,920 Descending FlightAware
01:56PM 45.7940 -72.2860 263° West 344 396 20,700 -1,920 Descending FlightAware
01:57PM 45.7850 -72.3740 262° West 340 391 19,500 -1,860 Descending FlightAware
01:58PM 45.7750 -72.4720 262° West 334 384 18,100 -1,860 Descending FlightAware
01:58PM 45.7670 -72.5540 262° West 333 383 16,900 -1,860 Descending FlightAware
01:59PM 45.7560 -72.6600 262° West 325 374 15,500 -1,860 Descending FlightAware
02:00PM 45.7480 -72.7450 262° West 321 369 14,300 -1,800 Descending FlightAware
02:00PM 45.7380 -72.8410 262° West 318 366 13,000 -1,740 Descending FlightAware
02:01PM 45.7300 -72.9200 262° West 316 364 11,900 -1,740 Descending FlightAware
02:02PM 45.7170 -73.0040 258° West 310 357 10,700 -1,740 Descending FlightAware
02:02PM 45.7080 -73.0640 258° West 304 350 9,900 -900 Descending FlightAware
02:03PM 45.7000 -73.1200 258° West 279 321 9,800 -660 Descending FlightAware
02:03PM 45.6940 -73.1630 259° West 274 315 9,300 -1,440 Descending FlightAware
02:04PM 45.6860 -73.2160 258° West 274 315 8,500 -1,620 Descending FlightAware
02:04PM 45.6820 -73.2440 258° West 276 318 8,100 -1,500 Descending FlightAware
02:04PM 45.6760 -73.2860 258° West 274 315 7,500 -1,500 Descending FlightAware
02:05PM 45.6710 -73.3160 257° West 272 313 7,100 -1,380 Descending FlightAware
02:05PM 45.6650 -73.3570 258° West 269 310 6,600 -1,320 Descending FlightAware
02:05PM 45.6570 -73.4100 258° West 267 307 5,900 -1,440 Descending FlightAware
02:06PM 45.6500 -73.4600 259° West 265 305 5,200 -1,380 Descending FlightAware
02:06PM 45.6470 -73.4770 256° West 264 304 5,000 -1,200 Descending FlightAware
02:07PM 45.6380 -73.5260 255° West 245 282 4,400 -1,200 Descending FlightAware
02:07PM 45.6270 -73.5460 232° Southwest 235 270 4,100 -1,380 Descending FlightAware
02:07PM 45.6080 -73.5720 224° Southwest 229 264 3,500 -1,560 Descending FlightAware
02:08PM 45.5850 -73.6020 222° Southwest 228 262 2,700 -1,440 Descending FlightAware
02:08PM 45.5620 -73.6320 222° Southwest 219 252 2,100 -1,200 Descending FlightAware
02:09PM 45.5440 -73.6560 223° Southwest 205 236 1,600 -1,080 Descending FlightAware
02:09PM 45.5350 -73.6680 223° Southwest 188 216 1,400 -900 Descending FlightAware
02:09PM 45.5190 -73.6890 223° Southwest 162 186 1,000 -900 Descending FlightAware
02:10PM 45.5120 -73.6990 225° Southwest 153 176 800 -840 Descending FlightAware
02:10PM 45.4990 -73.7160 223° Southwest 142 163 400 -720 Descending FlightAware
02:11PM 45.4860 -73.7320 221° Southwest 140 161 100 -600 Descending FlightAware